createdAt,value
2023-02-06T00:01:54.895Z,21.47
2023-02-06T00:03:56.238Z,21.46
2023-02-06T00:05:57.651Z,21.47
2023-02-06T00:07:59.027Z,21.45
2023-02-06T00:10:00.341Z,21.44
2023-02-06T00:12:02.262Z,21.44
2023-02-06T00:14:03.597Z,21.48
2023-02-06T00:16:04.935Z,21.49
2023-02-06T00:18:06.280Z,21.52
2023-02-06T00:20:07.575Z,21.58
2023-02-06T00:22:10.320Z,21.61
2023-02-06T00:24:11.678Z,21.64
2023-02-06T00:26:12.979Z,21.69
2023-02-06T00:28:14.430Z,21.75
2023-02-06T00:30:15.754Z,21.80
2023-02-06T00:32:17.084Z,21.84
2023-02-06T00:34:18.440Z,21.90
2023-02-06T00:36:19.736Z,21.91
2023-02-06T00:38:21.069Z,21.92
2023-02-06T00:40:22.391Z,21.95
2023-02-06T00:42:23.685Z,21.94
2023-02-06T00:44:24.979Z,21.96
2023-02-06T00:46:26.383Z,21.90
2023-02-06T00:48:27.729Z,21.86
2023-02-06T00:50:29.057Z,21.79
2023-02-06T00:52:30.398Z,21.75
2023-02-06T00:54:31.683Z,21.69
2023-02-06T00:56:33.047Z,21.67
2023-02-06T00:58:34.411Z,21.66
2023-02-06T01:00:35.717Z,21.65
2023-02-06T01:02:37.082Z,21.64
2023-02-06T01:04:38.373Z,21.64
2023-02-06T01:06:39.679Z,21.62
2023-02-06T01:08:41.061Z,21.58
2023-02-06T01:10:42.513Z,21.54
2023-02-06T01:12:43.820Z,21.52
2023-02-06T01:14:45.168Z,21.50
2023-02-06T01:16:46.484Z,21.48
2023-02-06T01:18:47.800Z,21.51
2023-02-06T01:20:49.136Z,21.49
2023-02-06T01:22:50.440Z,21.47
2023-02-06T01:24:51.763Z,21.50
2023-02-06T01:26:53.077Z,21.50
2023-02-06T01:28:54.466Z,21.48
2023-02-06T01:30:55.796Z,21.50
2023-02-06T01:32:57.148Z,21.52
2023-02-06T01:34:58.435Z,21.51
2023-02-06T01:36:59.727Z,21.55
2023-02-06T01:39:01.091Z,21.58
2023-02-06T01:41:02.391Z,21.60
2023-02-06T01:43:03.690Z,21.61
2023-02-06T01:45:04.978Z,21.68
2023-02-06T01:47:06.268Z,21.74
2023-02-06T01:49:07.582Z,21.85
2023-02-06T01:51:08.920Z,21.93
2023-02-06T01:53:10.260Z,21.97
2023-02-06T01:55:11.559Z,21.98
2023-02-06T01:57:12.889Z,22.01
2023-02-06T01:59:14.251Z,22.00
2023-02-06T02:01:15.566Z,22.01
2023-02-06T02:03:16.858Z,21.94
2023-02-06T02:05:18.231Z,21.91
2023-02-06T02:07:19.571Z,21.82
2023-02-06T02:09:20.945Z,21.79
2023-02-06T02:11:22.257Z,21.75
2023-02-06T02:13:23.593Z,21.72
2023-02-06T02:15:24.937Z,21.68
2023-02-06T02:17:26.230Z,21.66
2023-02-06T02:19:27.538Z,21.65
2023-02-06T02:21:28.880Z,21.66
2023-02-06T02:23:30.185Z,21.64
2023-02-06T02:25:31.486Z,21.63
2023-02-06T02:27:32.819Z,21.60
2023-02-06T02:29:34.117Z,21.58
2023-02-06T02:31:35.471Z,21.55
2023-02-06T02:33:36.801Z,21.54
2023-02-06T02:35:38.350Z,21.52
2023-02-06T02:37:39.781Z,21.52
2023-02-06T02:39:41.071Z,21.51
2023-02-06T02:41:42.361Z,21.50
2023-02-06T02:43:43.979Z,21.48
2023-02-06T02:45:45.281Z,21.48
2023-02-06T02:47:46.579Z,21.48
2023-02-06T02:49:47.871Z,21.48
2023-02-06T02:51:49.257Z,21.52
2023-02-06T02:53:50.554Z,21.53
2023-02-06T02:55:51.851Z,21.54
2023-02-06T02:57:53.152Z,21.57
2023-02-06T02:59:54.453Z,21.60
2023-02-06T03:01:56.113Z,21.67
2023-02-06T03:03:57.568Z,21.82
2023-02-06T03:05:58.879Z,21.94
2023-02-06T03:08:00.174Z,22.01
2023-02-06T03:10:02.254Z,22.04
2023-02-06T03:12:03.551Z,22.04
2023-02-06T03:14:04.914Z,22.04
2023-02-06T03:16:06.233Z,22.10
2023-02-06T03:18:08.254Z,22.07
2023-02-06T03:20:09.760Z,22.03
2023-02-06T03:22:11.109Z,21.90
2023-02-06T03:24:12.398Z,21.79
2023-02-06T03:26:13.725Z,21.71
2023-02-06T03:28:15.116Z,21.61
2023-02-06T03:30:16.536Z,21.51
2023-02-06T03:32:17.862Z,21.45
2023-02-06T03:34:19.171Z,21.44
2023-02-06T03:36:20.696Z,21.44
2023-02-06T03:38:24.702Z,21.42
2023-02-06T03:40:26.030Z,21.41
2023-02-06T03:42:27.410Z,21.44
2023-02-06T03:44:28.959Z,21.34
2023-02-06T03:46:30.342Z,21.28
2023-02-06T03:48:31.733Z,21.21
2023-02-06T03:50:33.076Z,21.18
2023-02-06T03:52:34.372Z,21.42
2023-02-06T03:54:35.659Z,21.57
2023-02-06T03:56:37.003Z,21.44
2023-02-06T03:58:38.298Z,21.32
2023-02-06T04:00:39.599Z,21.26
2023-02-06T04:02:40.959Z,21.18
2023-02-06T04:04:42.287Z,21.09
2023-02-06T04:06:43.575Z,21.10
2023-02-06T04:08:44.866Z,21.12
2023-02-06T04:10:46.199Z,21.13
2023-02-06T04:12:47.548Z,21.16
2023-02-06T04:14:48.889Z,21.18
2023-02-06T04:16:50.298Z,21.27
2023-02-06T04:18:51.742Z,21.39
2023-02-06T04:20:53.062Z,21.49
2023-02-06T04:22:54.373Z,21.59
2023-02-06T04:24:55.679Z,21.68
2023-02-06T04:26:56.970Z,21.72
2023-02-06T04:28:58.439Z,21.75
2023-02-06T04:30:59.895Z,21.79
2023-02-06T04:33:01.325Z,21.84
2023-02-06T04:35:02.651Z,21.86
2023-02-06T04:37:03.952Z,21.84
2023-02-06T04:39:05.250Z,21.80
2023-02-06T04:41:06.602Z,21.74
2023-02-06T04:43:07.898Z,21.66
2023-02-06T04:45:09.351Z,21.62
2023-02-06T04:47:10.692Z,21.58
2023-02-06T04:49:11.984Z,21.55
2023-02-06T04:51:13.282Z,21.49
2023-02-06T04:53:14.580Z,21.41
2023-02-06T04:55:15.972Z,21.35
2023-02-06T04:57:17.262Z,21.29
2023-02-06T04:59:18.596Z,21.25
2023-02-06T05:01:19.940Z,21.21
2023-02-06T05:03:23.495Z,21.17
2023-02-06T05:05:24.836Z,21.10
2023-02-06T05:07:26.159Z,21.03
2023-02-06T05:09:27.477Z,20.93
2023-02-06T05:11:28.798Z,20.84
2023-02-06T05:13:30.204Z,20.76
2023-02-06T05:15:31.533Z,20.67
2023-02-06T05:17:32.875Z,20.61
2023-02-06T05:19:34.231Z,20.55
2023-02-06T05:21:35.533Z,20.50
2023-02-06T05:23:36.820Z,20.49
2023-02-06T05:25:38.241Z,20.45
2023-02-06T05:27:39.603Z,20.47
2023-02-06T05:29:40.896Z,20.46
2023-02-06T05:31:42.229Z,20.48
2023-02-06T05:33:43.544Z,20.49
2023-02-06T05:35:44.843Z,20.52
2023-02-06T05:37:46.206Z,20.57
2023-02-06T05:39:47.545Z,20.62
2023-02-06T05:41:48.882Z,20.71
2023-02-06T05:43:50.337Z,20.80
2023-02-06T05:45:51.641Z,20.91
2023-02-06T05:47:54.427Z,21.01
2023-02-06T05:49:55.719Z,21.13
2023-02-06T05:51:57.081Z,21.19
2023-02-06T05:53:58.419Z,21.27
2023-02-06T05:55:59.734Z,21.34
2023-02-06T05:58:01.032Z,21.41
2023-02-06T06:00:02.460Z,21.49
2023-02-06T06:02:03.824Z,21.60
2023-02-06T06:04:05.181Z,21.64
2023-02-06T06:06:06.571Z,21.64
2023-02-06T06:08:07.867Z,21.68
2023-02-06T06:10:09.170Z,21.67
2023-02-06T06:12:10.538Z,21.65
2023-02-06T06:14:11.868Z,21.60
2023-02-06T06:16:13.250Z,21.52
2023-02-06T06:18:14.596Z,21.46
2023-02-06T06:20:15.894Z,21.40
2023-02-06T06:22:17.243Z,21.36
2023-02-06T06:24:18.531Z,21.33
2023-02-06T06:26:19.834Z,21.28
2023-02-06T06:28:21.206Z,21.21
2023-02-06T06:30:22.535Z,21.16
2023-02-06T06:32:23.864Z,21.13
2023-02-06T06:34:26.213Z,21.10
2023-02-06T06:36:27.585Z,21.09
2023-02-06T06:38:28.922Z,21.06
2023-02-06T06:40:30.213Z,21.04
2023-02-06T06:42:31.528Z,21.01
2023-02-06T06:44:32.884Z,21.00
2023-02-06T06:46:34.176Z,20.98
2023-02-06T06:48:37.066Z,20.94
2023-02-06T06:50:38.406Z,20.93
2023-02-06T06:52:39.755Z,20.90
2023-02-06T06:54:41.098Z,20.88
2023-02-06T06:56:42.431Z,20.85
2023-02-06T06:58:43.757Z,20.84
2023-02-06T07:00:45.177Z,20.84
2023-02-06T07:02:46.621Z,20.84
2023-02-06T07:04:47.954Z,20.87
2023-02-06T07:06:49.252Z,20.88
2023-02-06T07:08:50.579Z,20.94
2023-02-06T07:10:51.948Z,21.01
2023-02-06T07:12:56.746Z,21.10
2023-02-06T07:14:58.045Z,21.20
2023-02-06T07:17:00.877Z,21.29
2023-02-06T07:19:02.179Z,21.35
2023-02-06T07:21:04.167Z,21.40
2023-02-06T07:23:05.553Z,21.47
2023-02-06T07:25:06.884Z,21.48
2023-02-06T07:27:08.177Z,21.49
2023-02-06T07:29:09.525Z,21.52
2023-02-06T07:31:10.926Z,21.52
2023-02-06T07:33:12.257Z,21.52
2023-02-06T07:35:15.296Z,21.53
2023-02-06T07:37:16.592Z,21.48
2023-02-06T07:39:17.932Z,21.40
2023-02-06T07:41:19.232Z,21.33
2023-02-06T07:43:20.614Z,21.28
2023-02-06T07:45:21.931Z,21.25
2023-02-06T07:47:23.223Z,21.20
2023-02-06T07:49:24.523Z,21.15
2023-02-06T07:51:25.895Z,21.07
2023-02-06T07:53:27.409Z,20.97
2023-02-06T07:55:28.802Z,20.95
2023-02-06T07:57:30.131Z,20.93
2023-02-06T07:59:31.497Z,20.90
2023-02-06T08:01:32.841Z,20.88
2023-02-06T08:03:34.193Z,20.87
2023-02-06T08:05:35.958Z,20.86
2023-02-06T08:07:37.437Z,20.81
2023-02-06T08:09:38.742Z,20.79
2023-02-06T08:11:40.233Z,20.78
2023-02-06T08:13:41.561Z,20.06
2023-02-06T08:15:42.847Z,20.74
2023-02-06T08:17:44.143Z,20.74
2023-02-06T08:19:45.417Z,20.75
2023-02-06T08:21:46.739Z,20.74
2023-02-06T08:23:48.155Z,20.75
2023-02-06T08:25:49.456Z,20.78
2023-02-06T08:27:50.796Z,20.82
2023-02-06T08:29:52.290Z,20.89
2023-02-06T08:31:53.665Z,21.01
2023-02-06T08:33:55.070Z,21.10
2023-02-06T08:35:56.381Z,21.17
2023-02-06T08:37:57.686Z,21.25
2023-02-06T08:39:59.067Z,21.35
2023-02-06T08:42:00.355Z,21.41
2023-02-06T08:44:02.215Z,21.49
2023-02-06T08:46:03.574Z,21.52
2023-02-06T08:48:04.883Z,21.55
2023-02-06T08:50:06.239Z,21.59
2023-02-06T08:52:07.524Z,21.58
2023-02-06T08:54:08.900Z,21.57
2023-02-06T08:56:10.188Z,21.57
2023-02-06T08:58:11.609Z,21.52
2023-02-06T09:00:12.921Z,21.49
2023-02-06T09:02:14.370Z,21.46
2023-02-06T09:04:15.739Z,21.39
2023-02-06T09:06:17.055Z,21.34
2023-02-06T09:08:18.685Z,21.29
2023-02-06T09:10:27.492Z,21.23
2023-02-06T09:12:29.508Z,21.16
2023-02-06T09:14:30.811Z,21.10
2023-02-06T09:16:33.529Z,21.05
2023-02-06T09:18:35.810Z,21.00
2023-02-06T09:20:37.112Z,20.97
2023-02-06T09:22:38.408Z,20.95
2023-02-06T09:24:39.873Z,20.94
2023-02-06T09:26:58.018Z,20.90
2023-02-06T09:29:00.191Z,20.88
2023-02-06T09:31:02.293Z,20.85
2023-02-06T09:33:03.632Z,20.83
2023-02-06T09:35:05.012Z,20.80
2023-02-06T09:37:06.382Z,20.81
2023-02-06T09:39:07.751Z,20.80
2023-02-06T09:41:09.629Z,20.77
2023-02-06T09:43:10.923Z,20.78
2023-02-06T09:45:12.250Z,20.80
2023-02-06T09:47:13.716Z,20.85
2023-02-06T09:49:15.007Z,20.89
2023-02-06T09:51:16.349Z,20.97
2023-02-06T09:53:17.655Z,21.02
2023-02-06T09:55:18.986Z,21.11
2023-02-06T09:57:20.322Z,21.18
2023-02-06T09:59:21.633Z,21.26
2023-02-06T10:01:22.979Z,21.28
2023-02-06T10:03:24.409Z,21.31
2023-02-06T10:05:25.834Z,21.35
2023-02-06T10:07:27.273Z,21.35
2023-02-06T10:09:28.564Z,21.33
2023-02-06T10:11:29.863Z,21.37
2023-02-06T10:13:31.258Z,21.35
2023-02-06T10:15:32.604Z,21.36
2023-02-06T10:17:33.904Z,21.36
2023-02-06T10:19:35.200Z,21.37
2023-02-06T10:21:37.149Z,21.31
2023-02-06T10:23:38.466Z,21.26
2023-02-06T10:25:39.794Z,21.19
2023-02-06T10:27:41.129Z,21.15
2023-02-06T10:29:42.530Z,21.12
2023-02-06T10:31:45.082Z,21.07
2023-02-06T10:33:46.440Z,21.02
2023-02-06T10:35:47.815Z,20.95
2023-02-06T10:37:49.107Z,20.90
2023-02-06T10:39:50.540Z,20.86
2023-02-06T10:41:51.836Z,20.83
2023-02-06T10:43:53.179Z,20.81
2023-02-06T10:45:54.478Z,20.78
2023-02-06T10:47:55.805Z,20.77
2023-02-06T10:49:57.103Z,20.73
2023-02-06T10:51:58.611Z,20.72
2023-02-06T10:53:59.909Z,20.69
2023-02-06T10:56:02.212Z,20.69
2023-02-06T10:58:03.615Z,20.68
2023-02-06T11:00:05.253Z,20.68
2023-02-06T11:02:06.707Z,20.69
2023-02-06T11:04:08.607Z,20.71
2023-02-06T11:06:09.899Z,20.74
2023-02-06T11:08:11.265Z,20.79
2023-02-06T11:10:12.591Z,20.85
2023-02-06T11:12:14.004Z,20.93
2023-02-06T11:14:15.365Z,21.02
2023-02-06T11:16:16.745Z,21.09
2023-02-06T11:18:18.197Z,21.15
2023-02-06T11:20:21.763Z,21.19
2023-02-06T11:22:23.068Z,21.21
2023-02-06T11:24:24.502Z,21.25
2023-02-06T11:26:25.864Z,21.26
2023-02-06T11:28:27.178Z,21.27
2023-02-06T11:30:29.527Z,21.27
2023-02-06T11:32:32.064Z,21.27
2023-02-06T11:34:33.469Z,21.29
2023-02-06T11:36:34.765Z,21.28
2023-02-06T11:38:36.070Z,21.27
2023-02-06T11:40:37.603Z,21.19
2023-02-06T11:42:39.111Z,21.15
2023-02-06T11:44:40.475Z,21.11
2023-02-06T11:46:41.896Z,21.05
2023-02-06T11:48:43.361Z,21.01
2023-02-06T11:50:44.686Z,20.98
2023-02-06T11:52:47.005Z,20.95
2023-02-06T11:54:48.495Z,20.88
2023-02-06T11:56:49.807Z,20.82
2023-02-06T11:58:51.187Z,20.77
2023-02-06T12:00:52.531Z,20.74
2023-02-06T12:02:53.868Z,20.73
2023-02-06T12:04:55.283Z,20.72
2023-02-06T12:06:56.630Z,20.70
2023-02-06T12:08:58.096Z,20.69
2023-02-06T12:10:59.399Z,20.68
2023-02-06T12:13:00.696Z,20.66
2023-02-06T12:15:23.612Z,20.66
2023-02-06T12:17:26.241Z,20.65
2023-02-06T12:19:31.654Z,20.66
2023-02-06T12:21:32.963Z,20.68
2023-02-06T12:23:34.300Z,20.70
2023-02-06T12:25:36.040Z,20.74
2023-02-06T12:27:39.249Z,20.80
2023-02-06T12:29:41.752Z,20.86
2023-02-06T12:31:43.366Z,20.97
2023-02-06T12:33:45.743Z,21.04
2023-02-06T12:35:47.727Z,21.10
2023-02-06T12:37:49.088Z,21.14
2023-02-06T12:39:50.388Z,21.15
2023-02-06T12:41:51.692Z,21.17
2023-02-06T12:43:56.079Z,21.20
2023-02-06T12:45:57.531Z,21.25
2023-02-06T12:47:58.933Z,21.27
2023-02-06T12:50:00.272Z,21.27
2023-02-06T12:52:02.778Z,21.27
2023-02-06T12:54:04.084Z,21.27
2023-02-06T12:56:08.292Z,21.25
2023-02-06T12:58:09.615Z,21.26
2023-02-06T13:00:12.829Z,21.21
2023-02-06T13:02:14.233Z,21.21
2023-02-06T13:04:15.611Z,21.14
2023-02-06T13:06:17.036Z,21.04
2023-02-06T13:08:18.323Z,20.95
2023-02-06T13:10:19.634Z,20.84
2023-02-06T13:12:21.159Z,20.72
2023-02-06T13:14:22.604Z,20.64
2023-02-06T13:16:23.969Z,20.55
2023-02-06T13:18:25.349Z,20.48
2023-02-06T13:20:26.662Z,20.40
2023-02-06T13:22:28.007Z,20.35
2023-02-06T13:24:29.298Z,20.34
2023-02-06T13:26:30.632Z,20.38
2023-02-06T13:28:31.964Z,20.41
2023-02-06T13:30:33.296Z,20.41
2023-02-06T13:32:39.909Z,20.44
2023-02-06T13:34:42.051Z,20.47
2023-02-06T13:36:43.367Z,20.49
2023-02-06T13:38:44.674Z,20.52
2023-02-06T13:40:46.015Z,20.58
2023-02-06T13:42:49.043Z,20.64
2023-02-06T13:44:50.351Z,20.72
2023-02-06T13:46:51.685Z,20.83
2023-02-06T13:48:52.992Z,20.88
2023-02-06T13:50:54.293Z,20.95
2023-02-06T13:52:55.664Z,21.01
2023-02-06T13:54:56.999Z,21.02
2023-02-06T13:56:58.306Z,21.10
2023-02-06T13:59:06.017Z,21.11
2023-02-06T14:01:07.579Z,21.05
2023-02-06T14:03:08.942Z,21.58
2023-02-06T14:05:10.765Z,21.97
2023-02-06T14:07:12.097Z,22.25
2023-02-06T14:09:13.408Z,22.31
2023-02-06T14:11:33.309Z,22.37
2023-02-06T14:13:34.676Z,22.52
2023-02-06T14:15:36.710Z,22.59
2023-02-06T14:17:38.508Z,22.80
2023-02-06T14:19:39.867Z,23.05
2023-02-06T14:21:41.189Z,23.39
2023-02-06T14:23:43.492Z,23.05
2023-02-06T14:25:46.048Z,23.08
2023-02-06T14:27:50.175Z,23.30
2023-02-06T14:29:51.507Z,22.96
2023-02-06T14:31:52.878Z,23.24
2023-02-06T14:33:54.311Z,23.43
2023-02-06T14:35:55.678Z,23.41
2023-02-06T14:37:57.209Z,22.69
2023-02-06T14:40:04.549Z,22.03
2023-02-06T14:42:06.021Z,21.61
2023-02-06T14:44:07.319Z,21.46
2023-02-06T14:46:08.955Z,21.42
2023-02-06T14:48:10.401Z,21.38
2023-02-06T14:50:11.796Z,21.36
2023-02-06T14:52:13.094Z,21.33
2023-02-06T14:54:14.395Z,21.32
2023-02-06T14:56:15.812Z,21.32
2023-02-06T14:58:17.157Z,21.31
2023-02-06T15:00:18.520Z,21.31
2023-02-06T15:02:19.835Z,21.32
2023-02-06T15:04:24.344Z,21.31
2023-02-06T15:06:25.652Z,21.32
2023-02-06T15:08:26.975Z,21.34
2023-02-06T15:10:28.679Z,21.32
2023-02-06T15:12:30.251Z,21.36
2023-02-06T15:14:31.593Z,21.42
2023-02-06T15:16:33.097Z,21.49
2023-02-06T15:18:37.204Z,21.57
2023-02-06T15:20:40.207Z,21.61
2023-02-06T15:22:41.553Z,21.66
2023-02-06T15:24:42.924Z,21.72
2023-02-06T15:26:44.245Z,21.78
2023-02-06T15:28:45.562Z,21.89
2023-02-06T15:30:53.020Z,21.92
2023-02-06T15:32:54.377Z,21.97
2023-02-06T15:34:55.800Z,22.06
2023-02-06T15:36:57.095Z,22.03
2023-02-06T15:38:58.408Z,21.89
2023-02-06T15:40:59.741Z,22.32
2023-02-06T15:43:01.077Z,22.85
2023-02-06T15:45:02.396Z,23.40
2023-02-06T15:47:03.763Z,23.60
2023-02-06T15:49:06.929Z,23.85
2023-02-06T15:51:08.302Z,23.88
2023-02-06T15:53:09.609Z,23.69
2023-02-06T15:55:13.961Z,23.72
2023-02-06T15:57:15.270Z,23.62
2023-02-06T15:59:16.603Z,23.64
2023-02-06T16:01:17.994Z,23.39
2023-02-06T16:03:19.353Z,23.10
2023-02-06T16:05:23.771Z,22.64
2023-02-06T16:07:25.115Z,22.93
2023-02-06T16:09:26.474Z,23.01
2023-02-06T16:11:46.304Z,23.09
2023-02-06T16:13:47.607Z,22.97
2023-02-06T16:15:48.921Z,22.99
2023-02-06T16:17:50.220Z,22.98
2023-02-06T16:19:52.069Z,22.94
2023-02-06T16:21:53.368Z,22.91
2023-02-06T16:23:54.718Z,22.92
2023-02-06T16:25:56.057Z,22.93
2023-02-06T16:27:57.375Z,22.94
2023-02-06T16:29:58.777Z,23.02
2023-02-06T16:32:00.194Z,22.98
2023-02-06T16:34:03.320Z,22.96
2023-02-06T16:36:04.738Z,22.95
2023-02-06T16:38:06.101Z,22.89
2023-02-06T16:40:07.435Z,22.84
2023-02-06T16:42:09.799Z,22.90
2023-02-06T16:44:11.132Z,22.82
2023-02-06T16:46:12.559Z,22.78
2023-02-06T16:48:13.887Z,22.78
2023-02-06T16:50:15.243Z,22.70
2023-02-06T16:52:17.564Z,22.70
2023-02-06T16:54:20.193Z,22.76
2023-02-06T16:56:27.708Z,22.77
2023-02-06T16:58:31.778Z,22.77
2023-02-06T17:00:36.388Z,22.79
2023-02-06T17:02:38.336Z,22.77
2023-02-06T17:04:39.734Z,22.83
2023-02-06T17:06:41.059Z,22.89
2023-02-06T17:08:42.362Z,22.81
2023-02-06T17:10:43.711Z,22.44
2023-02-06T17:12:45.230Z,22.61
2023-02-06T17:14:47.180Z,22.81
2023-02-06T17:16:48.523Z,22.97
2023-02-06T17:18:49.887Z,22.97
2023-02-06T17:21:00.973Z,23.16
2023-02-06T17:23:02.272Z,23.13
2023-02-06T17:25:06.340Z,23.05
2023-02-06T17:27:07.665Z,23.04
2023-02-06T17:29:08.968Z,23.01
2023-02-06T17:31:10.388Z,23.08
2023-02-06T17:33:11.762Z,23.12
2023-02-06T17:35:13.206Z,22.94
2023-02-06T17:37:20.747Z,22.46
2023-02-06T17:39:22.184Z,22.45
2023-02-06T17:41:23.498Z,22.59
2023-02-06T17:43:24.889Z,22.81
2023-02-06T17:45:26.193Z,22.87
2023-02-06T17:47:27.519Z,22.95
2023-02-06T17:49:28.856Z,22.93
2023-02-06T17:51:30.192Z,22.96
2023-02-06T17:53:31.488Z,22.97
2023-02-06T17:55:32.779Z,22.77
2023-02-06T17:57:34.236Z,22.73
2023-02-06T17:59:35.569Z,22.94
2023-02-06T18:01:36.998Z,22.79
2023-02-06T18:03:41.406Z,22.65
2023-02-06T18:05:42.711Z,22.69
2023-02-06T18:07:44.007Z,22.75
2023-02-06T18:09:45.354Z,22.70
2023-02-06T18:11:46.695Z,22.68
2023-02-06T18:13:48.032Z,22.66
2023-02-06T18:15:49.794Z,22.52
2023-02-06T18:17:51.747Z,22.17
2023-02-06T18:19:53.143Z,22.08
2023-02-06T18:21:54.446Z,21.91
2023-02-06T18:23:55.772Z,21.82
2023-02-06T18:25:57.067Z,21.78
2023-02-06T18:27:58.480Z,21.75
2023-02-06T18:30:04.355Z,21.76
2023-02-06T18:32:05.746Z,21.78
2023-02-06T18:34:07.952Z,21.81
2023-02-06T18:36:09.423Z,21.87
2023-02-06T18:38:11.031Z,21.89
2023-02-06T18:40:12.367Z,21.84
2023-02-06T18:42:32.624Z,22.17
2023-02-06T18:44:41.627Z,22.25
2023-02-06T18:46:42.983Z,22.11
2023-02-06T18:48:44.322Z,22.43
2023-02-06T18:50:52.231Z,22.62
2023-02-06T18:52:59.532Z,22.70
2023-02-06T18:55:00.837Z,22.76
2023-02-06T18:57:02.264Z,22.75
2023-02-06T18:59:03.990Z,22.78
2023-02-06T19:01:05.319Z,22.80
2023-02-06T19:03:09.712Z,22.77
2023-02-06T19:05:11.032Z,22.92
2023-02-06T19:07:12.399Z,22.99
2023-02-06T19:09:13.719Z,22.90
2023-02-06T19:11:15.021Z,22.98
2023-02-06T19:13:19.437Z,22.96
2023-02-06T19:15:23.699Z,22.96
2023-02-06T19:17:25.036Z,22.60
2023-02-06T19:19:26.350Z,22.33
2023-02-06T19:21:28.204Z,22.53
2023-02-06T19:23:29.632Z,22.68
2023-02-06T19:25:30.956Z,22.72
2023-02-06T19:27:32.303Z,22.76
2023-02-06T19:29:36.106Z,22.76
2023-02-06T19:31:40.549Z,22.79
2023-02-06T19:33:41.965Z,22.84
2023-02-06T19:35:44.220Z,22.81
2023-02-06T19:37:45.560Z,22.78
2023-02-06T19:39:46.976Z,22.74
2023-02-06T19:41:48.280Z,22.80
2023-02-06T19:43:49.630Z,22.99
2023-02-06T19:45:50.984Z,22.93
2023-02-06T19:47:52.326Z,22.85
2023-02-06T19:49:53.675Z,22.81
2023-02-06T19:51:54.980Z,22.87
2023-02-06T19:53:56.370Z,22.89
2023-02-06T19:55:57.666Z,22.97
2023-02-06T19:57:59.020Z,22.94
2023-02-06T20:00:00.360Z,22.96
2023-02-06T20:02:02.379Z,22.94
2023-02-06T20:04:03.717Z,22.91
2023-02-06T20:06:05.350Z,22.47
2023-02-06T20:08:06.757Z,22.33
2023-02-06T20:10:08.063Z,22.41
2023-02-06T20:12:09.372Z,22.46
2023-02-06T20:14:10.852Z,22.47
2023-02-06T20:16:12.240Z,22.50
2023-02-06T20:18:13.611Z,22.48
2023-02-06T20:20:14.916Z,22.50
2023-02-06T20:22:16.246Z,22.54
2023-02-06T20:24:18.632Z,22.59
2023-02-06T20:26:22.988Z,22.65
2023-02-06T20:28:24.412Z,22.68
2023-02-06T20:30:26.400Z,22.63
2023-02-06T20:32:27.875Z,22.61
2023-02-06T20:34:29.646Z,22.63
2023-02-06T20:36:31.169Z,22.39
2023-02-06T20:38:32.533Z,22.09
2023-02-06T20:40:38.715Z,21.91
2023-02-06T20:42:44.493Z,21.78
2023-02-06T20:44:48.804Z,22.30
2023-02-06T20:46:50.217Z,22.58
2023-02-06T20:48:51.545Z,22.68
2023-02-06T20:50:52.893Z,22.73
2023-02-06T20:52:54.193Z,22.75
2023-02-06T20:54:55.504Z,22.86
2023-02-06T20:57:00.478Z,22.72
2023-02-06T20:59:06.050Z,22.66
2023-02-06T21:01:07.365Z,22.50
2023-02-06T21:03:08.715Z,22.32
2023-02-06T21:05:10.053Z,22.30
2023-02-06T21:07:11.368Z,22.61
2023-02-06T21:09:12.706Z,22.73
2023-02-06T21:11:14.006Z,22.91
2023-02-06T21:13:15.346Z,22.86
2023-02-06T21:15:16.645Z,23.04
2023-02-06T21:17:17.960Z,23.09
2023-02-06T21:19:19.312Z,23.01
2023-02-06T21:21:20.628Z,22.93
2023-02-06T21:23:21.961Z,22.88
2023-02-06T21:25:23.299Z,22.82
2023-02-06T21:27:24.613Z,22.88
2023-02-06T21:29:25.914Z,22.92
2023-02-06T21:31:33.687Z,22.93
2023-02-06T21:33:36.680Z,23.15
2023-02-06T21:35:40.272Z,22.80
2023-02-06T21:37:41.588Z,22.67
2023-02-06T21:39:42.975Z,22.66
2023-02-06T21:41:44.280Z,22.67
2023-02-06T21:43:45.734Z,22.59
2023-02-06T21:45:47.245Z,22.57
2023-02-06T21:47:48.616Z,22.62
2023-02-06T21:49:49.910Z,22.19
2023-02-06T21:51:51.323Z,19.01
2023-02-06T21:53:52.667Z,19.27
2023-02-06T21:55:54.109Z,20.35
2023-02-06T21:57:55.434Z,20.94
2023-02-06T21:59:56.885Z,21.20
2023-02-06T22:01:58.247Z,21.35
2023-02-06T22:03:59.697Z,21.46
2023-02-06T22:06:01.032Z,21.58
2023-02-06T22:08:02.624Z,21.68
2023-02-06T22:10:03.922Z,21.79
2023-02-06T22:12:07.131Z,21.88
2023-02-06T22:14:08.508Z,21.97
2023-02-06T22:16:09.836Z,22.07
2023-02-06T22:18:11.161Z,22.11
2023-02-06T22:20:14.275Z,22.18
2023-02-06T22:22:16.731Z,22.17
2023-02-06T22:24:18.029Z,22.17
2023-02-06T22:26:19.360Z,22.20
2023-02-06T22:28:20.730Z,22.20
2023-02-06T22:30:22.036Z,22.18
2023-02-06T22:32:23.452Z,22.16
2023-02-06T22:34:24.762Z,22.08
2023-02-06T22:36:26.091Z,22.03
2023-02-06T22:38:27.416Z,21.99
2023-02-06T22:40:28.716Z,21.97
2023-02-06T22:42:30.087Z,21.95
2023-02-06T22:44:31.393Z,21.93
2023-02-06T22:46:32.757Z,21.84
2023-02-06T22:48:34.259Z,21.76
2023-02-06T22:50:35.552Z,21.71
2023-02-06T22:52:55.620Z,21.66
2023-02-06T22:54:56.936Z,21.59
2023-02-06T22:56:58.299Z,21.54
2023-02-06T22:58:59.651Z,21.50
2023-02-06T23:01:01.020Z,21.48
2023-02-06T23:03:02.840Z,21.48
2023-02-06T23:05:04.175Z,21.44
2023-02-06T23:07:05.598Z,21.40
2023-02-06T23:09:06.938Z,21.39
2023-02-06T23:11:08.263Z,21.36
2023-02-06T23:13:09.575Z,21.33
2023-02-06T23:15:10.876Z,21.32
2023-02-06T23:17:12.436Z,21.30
2023-02-06T23:19:13.773Z,21.28
2023-02-06T23:21:15.103Z,21.26
2023-02-06T23:23:16.408Z,21.25
2023-02-06T23:25:17.717Z,21.23
2023-02-06T23:27:20.939Z,21.24
2023-02-06T23:29:22.244Z,21.21
2023-02-06T23:31:23.991Z,21.24
2023-02-06T23:33:25.346Z,21.27
2023-02-06T23:35:26.652Z,21.29
2023-02-06T23:37:27.984Z,21.32
2023-02-06T23:39:29.286Z,21.34
2023-02-06T23:41:30.623Z,21.39
2023-02-06T23:43:32.031Z,21.50
2023-02-06T23:45:33.352Z,21.55
2023-02-06T23:47:34.707Z,21.59
2023-02-06T23:49:36.106Z,21.63
2023-02-06T23:51:37.999Z,21.70
2023-02-06T23:53:39.402Z,21.76
2023-02-06T23:55:40.710Z,21.78
2023-02-06T23:57:42.005Z,21.78
2023-02-06T23:59:43.307Z,21.80
